Time;durP1;ratioP1;P1;durP2;ratioP2;P2;SDS_P1;SDS_P2;PMS_P1;PMS_P2;Temp;Humidity;BMP_temperature;BMP_pressure;BME280_temperature;BME280_humidity;BME280_pressure;Samples;Min_cycle;Max_cycle;Signal;HPM_P1;HPM_P2
2021/04/17 00:01:18;;;;;;;14.32;8.25;;;-1.00;99.90;;;;;;8295752;28;20018;-69
2021/04/17 00:05:19;;;;;;;15.38;8.45;;;-1.20;99.90;;;;;;8295122;28;20393;-69
2021/04/17 00:09:25;;;;;;;16.00;9.00;;;-1.30;99.90;;;;;;8310726;28;20033;-69
2021/04/17 00:13:27;;;;;;;16.45;9.50;;;-1.40;99.90;;;;;;8293481;28;20030;-69
2021/04/17 00:17:29;;;;;;;16.05;9.65;;;-1.20;99.90;;;;;;8294882;28;20025;-69
2021/04/17 00:21:29;;;;;;;18.02;10.48;;;-1.20;99.90;;;;;;8295456;28;20041;-69
2021/04/17 00:25:30;;;;;;;17.17;10.30;;;-1.20;99.90;;;;;;8295130;28;20026;-69
2021/04/17 00:29:32;;;;;;;16.80;9.98;;;-1.20;99.90;;;;;;8293705;28;20026;-69
2021/04/17 00:33:32;;;;;;;17.25;10.10;;;-1.30;99.90;;;;;;8309823;28;20037;-69
2021/04/17 00:37:33;;;;;;;17.13;10.30;;;-1.30;99.90;;;;;;8295051;28;20026;-70
2021/04/17 00:41:34;;;;;;;18.00;10.23;;;-1.50;99.90;;;;;;8294982;28;20029;-69
2021/04/17 00:45:35;;;;;;;17.40;10.77;;;-1.20;99.90;;;;;;8293673;28;20084;-69
2021/04/17 00:49:35;;;;;;;17.35;9.85;;;-1.40;99.90;;;;;;8293669;28;20033;-69
2021/04/17 00:53:36;;;;;;;18.20;10.05;;;-1.50;99.90;;;;;;8293126;28;20121;-69
2021/04/17 00:57:38;;;;;;;19.42;10.65;;;-1.40;99.90;;;;;;8293513;28;20117;-69
2021/04/17 01:01:39;;;;;;;19.90;10.55;;;-1.50;99.90;;;;;;8294249;28;20030;-69
2021/04/17 01:05:41;;;;;;;20.92;10.98;;;-1.50;99.90;;;;;;8294039;28;20045;-70
2021/04/17 01:10:07;;;;;;;22.33;10.50;;;-1.40;99.90;;;;;;8294526;28;20026;-69
2021/04/17 01:14:09;;;;;;;18.38;9.70;;;-1.40;99.90;;;;;;8293122;28;20040;-69
2021/04/17 01:18:10;;;;;;;17.20;9.43;;;-1.40;99.90;;;;;;8294232;28;20025;-69
2021/04/17 01:22:15;;;;;;;15.70;8.70;;;-1.60;99.90;;;;;;8309072;28;20037;-69
2021/04/17 01:26:22;;;;;;;20.65;10.57;;;-1.80;99.90;;;;;;8293846;28;20025;-69
2021/04/17 01:30:23;;;;;;;24.73;12.43;;;-1.70;99.90;;;;;;8292644;28;20057;-69
2021/04/17 01:34:25;;;;;;;21.77;10.90;;;-1.60;99.90;;;;;;8292128;28;20707;-69
2021/04/17 01:38:29;;;;;;;19.45;10.90;;;-1.90;99.90;;;;;;8292372;28;20018;-69
2021/04/17 01:42:29;;;;;;;21.90;11.70;;;-2.10;99.90;;;;;;8292322;28;20018;-69
2021/04/17 01:46:33;;;;;;;20.08;10.15;;;-2.20;99.90;;;;;;8292176;28;20026;-69
2021/04/17 01:50:35;;;;;;;20.20;10.65;;;-2.10;99.90;;;;;;8292296;28;20214;-70
2021/04/17 01:54:43;;;;;;;20.08;11.48;;;-1.90;99.90;;;;;;8293272;28;20026;-69
2021/04/17 01:58:46;;;;;;;21.17;11.30;;;-1.90;99.90;;;;;;8298415;28;20037;-69
2021/04/17 02:02:46;;;;;;;21.25;11.50;;;-1.70;99.90;;;;;;8298170;28;20440;-69
2021/04/17 02:06:47;;;;;;;26.92;13.30;;;-1.60;99.90;;;;;;8299712;28;20109;-69
2021/04/17 02:10:49;;;;;;;23.80;12.57;;;-1.80;99.90;;;;;;8299697;28;20484;-70
2021/04/17 02:14:50;;;;;;;23.67;12.82;;;-1.70;99.90;;;;;;8298139;28;20026;-70
2021/04/17 02:19:00;;;;;;;26.50;13.38;;;-1.80;99.90;;;;;;8299146;28;20053;-69
2021/04/17 02:23:01;;;;;;;24.17;13.35;;;-1.60;99.90;;;;;;8297061;28;20392;-69
2021/04/17 02:27:02;;;;;;;24.58;12.80;;;-1.60;99.90;;;;;;8298469;28;20485;-69
2021/04/17 02:31:03;;;;;;;22.40;11.88;;;-1.70;99.90;;;;;;8297653;28;20032;-68
2021/04/17 02:35:04;;;;;;;21.48;11.52;;;-1.80;99.90;;;;;;8298374;28;20521;-69
2021/04/17 02:39:05;;;;;;;18.38;9.30;;;-2.10;99.90;;;;;;8297718;28;20496;-69
2021/04/17 02:43:06;;;;;;;19.95;11.18;;;-2.00;99.90;;;;;;8298261;28;20029;-69
2021/04/17 02:47:06;;;;;;;19.48;10.77;;;-2.20;99.90;;;;;;8298492;28;20455;-69
2021/04/17 02:51:07;;;;;;;21.27;11.45;;;-2.40;99.90;;;;;;8298318;28;20064;-69
2021/04/17 02:55:09;;;;;;;20.55;11.18;;;-2.50;99.90;;;;;;8297995;28;20029;-69
2021/04/17 02:59:10;;;;;;;19.42;10.73;;;-2.60;99.90;;;;;;8297990;28;20030;-69
2021/04/17 03:03:10;;;;;;;24.52;12.90;;;-2.70;99.90;;;;;;8297013;28;20404;-69
2021/04/17 03:07:11;;;;;;;25.58;12.38;;;-2.50;99.90;;;;;;8296822;28;20038;-70
2021/04/17 03:11:12;;;;;;;23.73;11.88;;;-2.60;99.90;;;;;;8297314;28;20029;-69
2021/04/17 03:15:13;;;;;;;23.30;11.43;;;-2.30;99.90;;;;;;8295840;28;20030;-69
2021/04/17 03:19:14;;;;;;;21.45;11.00;;;-2.50;99.90;;;;;;8296104;28;20492;-69
2021/04/17 03:23:14;;;;;;;20.85;11.15;;;-2.70;99.90;;;;;;8297273;28;20026;-68
2021/04/17 03:27:15;;;;;;;21.90;11.38;;;-2.60;99.90;;;;;;8296940;28;20034;-69
2021/04/17 03:31:15;;;;;;;19.25;10.25;;;-2.40;99.90;;;;;;8295752;28;20018;-69
2021/04/17 03:35:16;;;;;;;20.33;11.52;;;-2.50;99.90;;;;;;8295462;28;20030;-69
2021/04/17 03:39:16;;;;;;;20.75;11.40;;;-2.60;99.90;;;;;;8296310;28;20025;-69
2021/04/17 03:43:17;;;;;;;18.02;10.18;;;-2.20;99.90;;;;;;8303636;28;20037;-68
2021/04/17 03:47:20;;;;;;;24.95;11.73;;;-2.20;99.90;;;;;;8329238;28;20045;-69
2021/04/17 03:51:20;;;;;;;20.80;11.27;;;-2.30;99.90;;;;;;8329428;28;20022;-69
2021/04/17 03:55:21;;;;;;;21.23;11.43;;;-2.40;99.90;;;;;;8327733;28;20025;-70
2021/04/17 03:59:22;;;;;;;20.38;11.18;;;-2.30;99.90;;;;;;8328901;28;20036;-69
2021/04/17 04:03:22;;;;;;;21.77;11.02;;;-2.00;99.90;;;;;;8327947;28;20053;-69
2021/04/17 04:07:23;;;;;;;22.15;11.48;;;-1.70;99.90;;;;;;8326694;28;20028;-69
2021/04/17 04:11:23;;;;;;;22.13;11.80;;;-1.70;99.90;;;;;;8326756;28;20075;-70
2021/04/17 04:15:24;;;;;;;21.20;11.48;;;-1.80;99.90;;;;;;8326625;28;20034;-69
2021/04/17 04:19:24;;;;;;;22.20;11.95;;;-2.00;99.90;;;;;;8327412;28;20108;-69
2021/04/17 04:23:25;;;;;;;24.65;12.48;;;-1.90;99.90;;;;;;8327591;28;20144;-69
2021/04/17 04:27:26;;;;;;;21.23;11.45;;;-1.60;99.90;;;;;;8327793;28;20059;-70
2021/04/17 04:31:27;;;;;;;18.73;10.82;;;-1.80;99.90;;;;;;8327679;28;20057;-69
2021/04/17 04:35:28;;;;;;;23.20;12.05;;;-1.70;99.90;;;;;;8327192;28;20044;-69
2021/04/17 04:39:28;;;;;;;21.45;11.80;;;-1.50;99.90;;;;;;8327511;28;20148;-68
2021/04/17 04:43:29;;;;;;;20.33;10.82;;;-1.20;99.90;;;;;;8316038;28;20030;-69
2021/04/17 04:47:29;;;;;;;22.17;12.27;;;-1.20;99.90;;;;;;8294586;28;20022;-69
2021/04/17 04:51:30;;;;;;;24.10;12.90;;;-1.10;99.90;;;;;;8303310;28;20045;-69
2021/04/17 04:55:31;;;;;;;23.50;12.68;;;-1.10;99.90;;;;;;8311388;28;20500;-69
2021/04/17 04:59:31;;;;;;;25.00;12.98;;;-0.90;99.90;;;;;;8302168;28;20038;-69
2021/04/17 05:03:32;;;;;;;22.08;11.73;;;-0.70;99.90;;;;;;8297714;28;20036;-69
2021/04/17 05:07:32;;;;;;;19.45;11.05;;;-0.70;99.90;;;;;;8302618;28;20029;-69
2021/04/17 05:11:33;;;;;;;19.73;10.88;;;-0.70;99.90;;;;;;8305098;28;20476;-70
2021/04/17 05:15:34;;;;;;;19.23;10.98;;;-0.70;99.90;;;;;;8308417;28;20026;-69
2021/04/17 05:19:39;;;;;;;21.10;10.82;;;-0.70;99.90;;;;;;8307505;28;20124;-69
2021/04/17 05:23:44;;;;;;;21.10;11.38;;;-0.50;99.90;;;;;;8299495;28;20124;-70
2021/04/17 05:27:44;;;;;;;18.50;11.27;;;-0.30;99.90;;;;;;8306683;28;20519;-69
2021/04/17 05:31:45;;;;;;;20.63;11.50;;;0.00;99.90;;;;;;8312385;28;20084;-70
2021/04/17 05:35:45;;;;;;;24.63;12.70;;;0.20;99.90;;;;;;8316584;28;20443;-70
2021/04/17 05:39:46;;;;;;;21.42;12.30;;;0.50;99.90;;;;;;8325831;28;20115;-70
2021/04/17 05:43:47;;;;;;;20.52;12.15;;;0.90;99.90;;;;;;8323668;28;20025;-70
2021/04/17 05:47:47;;;;;;;19.90;11.15;;;1.20;99.90;;;;;;8299212;28;20094;-70
2021/04/17 05:51:48;;;;;;;22.17;12.35;;;1.40;99.90;;;;;;8324520;28;20076;-70
2021/04/17 05:55:48;;;;;;;24.05;12.80;;;1.40;99.90;;;;;;8318012;28;20029;-70
2021/04/17 05:59:49;;;;;;;21.13;12.68;;;1.30;99.90;;;;;;8308582;28;20026;-70
2021/04/17 06:03:50;;;;;;;22.02;12.75;;;1.60;99.90;;;;;;8305200;28;20037;-70
2021/04/17 06:07:51;;;;;;;23.65;13.68;;;2.00;99.90;;;;;;8298288;28;20443;-65
2021/04/17 06:11:52;;;;;;;24.42;14.65;;;2.30;99.90;;;;;;8302560;28;20028;-66
2021/04/17 06:15:53;;;;;;;24.90;13.60;;;2.70;99.90;;;;;;8302770;28;20112;-63
2021/04/17 06:19:54;;;;;;;27.17;14.55;;;2.90;99.90;;;;;;8317516;28;20381;-65
2021/04/17 06:23:54;;;;;;;27.80;15.32;;;2.80;99.90;;;;;;8318460;28;20488;-65
2021/04/17 06:27:55;;;;;;;25.88;14.77;;;2.70;99.90;;;;;;8304688;28;20104;-65
2021/04/17 06:31:55;;;;;;;30.58;17.05;;;2.80;99.90;;;;;;8305714;28;20018;-65
2021/04/17 06:35:58;;;;;;;29.08;16.77;;;3.10;99.90;;;;;;8291451;28;20049;-65
2021/04/17 06:39:58;;;;;;;27.25;16.05;;;3.00;99.90;;;;;;8295760;28;20048;-66
2021/04/17 06:44:01;;;;;;;25.02;15.13;;;3.30;99.90;;;;;;8304225;28;20057;-66
2021/04/17 06:48:07;;;;;;;23.95;14.50;;;3.60;99.90;;;;;;8309462;28;20067;-65
2021/04/17 06:52:10;;;;;;;25.30;14.55;;;4.10;99.90;;;;;;8314539;28;20014;-65
2021/04/17 06:56:11;;;;;;;24.98;15.40;;;4.20;99.90;;;;;;8296889;28;20036;-66
2021/04/17 07:00:13;;;;;;;26.88;15.82;;;4.30;99.90;;;;;;8316746;28;20488;-65
2021/04/17 07:04:14;;;;;;;27.45;16.40;;;4.50;99.90;;;;;;8311500;28;20064;-65
2021/04/17 07:08:15;;;;;;;27.83;16.63;;;4.80;99.90;;;;;;8305931;28;20117;-65
2021/04/17 07:12:16;;;;;;;27.40;15.20;;;5.20;99.90;;;;;;8298777;28;20029;-66
2021/04/17 07:16:16;;;;;;;30.67;17.63;;;6.10;99.90;;;;;;8299973;28;20030;-66
2021/04/17 07:20:17;;;;;;;28.70;17.15;;;7.10;99.90;;;;;;8302104;28;20026;-65
2021/04/17 07:24:26;;;;;;;28.23;16.98;;;7.70;99.90;;;;;;8296068;28;20029;-65
2021/04/17 07:28:27;;;;;;;28.13;17.20;;;8.20;99.90;;;;;;8307376;28;20101;-65
2021/04/17 07:32:27;;;;;;;27.23;16.75;;;8.50;99.90;;;;;;8309211;28;20104;-66
2021/04/17 07:36:51;;;;;;;30.30;17.65;;;8.50;99.90;;;;;;8311760;28;20037;-66
2021/04/17 07:41:04;;;;;;;28.75;17.05;;;8.40;99.90;;;;;;8306204;28;20058;-66
2021/04/17 07:45:18;;;;;;;27.67;17.25;;;8.30;99.90;;;;;;8305021;28;20030;-65
2021/04/17 07:49:21;;;;;;;28.98;17.30;;;8.30;99.90;;;;;;8313532;28;20025;-66
2021/04/17 07:53:29;;;;;;;30.30;18.52;;;8.40;99.90;;;;;;8309725;28;20030;-65
2021/04/17 07:57:54;;;;;;;29.08;17.83;;;8.70;99.90;;;;;;8304853;28;20037;-65
2021/04/17 08:01:55;;;;;;;27.95;17.52;;;8.90;99.90;;;;;;8304734;28;20040;-65
2021/04/17 08:05:55;;;;;;;27.75;17.02;;;9.00;99.90;;;;;;8303931;28;20062;-65
2021/04/17 08:09:58;;;;;;;28.00;16.08;;;9.00;99.90;;;;;;8294213;28;20022;-64
2021/04/17 08:13:59;;;;;;;27.38;15.40;;;8.90;99.90;;;;;;8301512;28;20061;-65
2021/04/17 08:18:01;;;;;;;28.13;16.05;;;9.00;99.90;;;;;;8313474;28;20435;-64
2021/04/17 08:22:02;;;;;;;26.20;16.15;;;9.30;99.90;;;;;;8310336;28;20030;-65
2021/04/17 08:26:05;;;;;;;24.65;15.32;;;9.40;99.90;;;;;;8313599;28;20039;-65
2021/04/17 08:30:09;;;;;;;24.73;15.20;;;9.80;99.90;;;;;;8296602;28;20025;-64
2021/04/17 08:34:18;;;;;;;27.00;16.40;;;10.00;99.90;;;;;;8317322;28;20029;-63
2021/04/17 08:38:19;;;;;;;23.83;15.40;;;10.50;99.90;;;;;;8310783;28;20049;-64
2021/04/17 08:42:43;;;;;;;24.88;15.30;;;10.80;99.90;;;;;;8321594;28;20045;-64
2021/04/17 08:46:44;;;;;;;23.67;14.50;;;11.10;99.90;;;;;;8307811;28;20030;-63
2021/04/17 08:50:45;;;;;;;22.85;14.57;;;10.50;99.90;;;;;;8295892;28;20028;-64
2021/04/17 08:55:01;;;;;;;20.17;12.90;;;10.70;99.90;;;;;;8310985;28;20114;-64
2021/04/17 08:59:09;;;;;;;15.82;11.45;;;11.00;99.90;;;;;;8312468;28;20021;-64
2021/04/17 09:03:43;;;;;;;20.85;12.55;;;11.20;99.90;;;;;;8305022;28;20060;-65
2021/04/17 09:07:47;;;;;;;18.10;11.65;;;11.30;99.90;;;;;;8302309;28;20075;-65
2021/04/17 09:11:50;;;;;;;19.15;12.48;;;11.10;99.90;;;;;;8310991;28;20057;-65
2021/04/17 09:16:01;;;;;;;18.00;11.52;;;11.00;99.90;;;;;;8319278;28;20037;-65
2021/04/17 09:20:11;;;;;;;16.80;10.10;;;10.90;99.90;;;;;;8324102;28;20029;-65
2021/04/17 09:24:25;;;;;;;19.25;11.73;;;11.30;99.90;;;;;;8318988;28;20548;-65
2021/04/17 09:28:38;;;;;;;15.32;10.98;;;11.80;99.90;;;;;;8310820;28;20064;-65
2021/04/17 09:32:50;;;;;;;16.75;11.43;;;11.60;99.90;;;;;;8319721;28;20503;-65
2021/04/17 09:36:51;;;;;;;17.35;10.88;;;11.10;99.90;;;;;;8314808;28;20040;-65
2021/04/17 09:40:54;;;;;;;21.75;13.13;;;11.10;99.90;;;;;;8321758;28;20507;-65
2021/04/17 09:44:54;;;;;;;15.80;9.60;;;11.70;99.90;;;;;;8315357;28;20060;-65
2021/04/17 09:48:55;;;;;;;12.80;8.80;;;12.00;99.90;;;;;;8312402;28;20022;-65
2021/04/17 09:53:11;;;;;;;13.77;9.88;;;12.10;99.90;;;;;;8295158;28;20500;-65
2021/04/17 09:57:12;;;;;;;12.93;9.05;;;12.10;99.90;;;;;;8289261;28;20041;-65
2021/04/17 10:01:14;;;;;;;14.35;9.82;;;12.20;99.90;;;;;;8290443;28;20030;-65
2021/04/17 10:05:31;;;;;;;14.45;8.50;;;11.90;99.90;;;;;;8291651;28;20026;-65
2021/04/17 10:09:32;;;;;;;12.50;8.07;;;11.70;99.90;;;;;;8291059;28;20030;-65
2021/04/17 10:13:46;;;;;;;12.38;9.23;;;11.60;99.90;;;;;;8291706;28;20485;-65
2021/04/17 10:17:56;;;;;;;11.35;8.15;;;12.10;99.90;;;;;;8295987;28;20104;-65
2021/04/17 10:21:59;;;;;;;10.55;7.38;;;12.40;98.80;;;;;;8315491;28;20105;-65
2021/04/17 10:26:09;;;;;;;10.60;7.28;;;11.60;99.90;;;;;;8307621;28;20029;-65
2021/04/17 10:30:15;;;;;;;8.85;6.13;;;11.80;99.90;;;;;;8315437;28;20017;-64
2021/04/17 10:34:22;;;;;;;9.02;6.28;;;10.20;98.40;;;;;;8303578;28;20484;-66
2021/04/17 10:38:26;;;;;;;11.68;6.63;;;10.20;99.90;;;;;;8289283;28;20026;-64
2021/04/17 10:42:48;;;;;;;10.07;6.65;;;10.20;98.70;;;;;;8293261;28;20052;-65
2021/04/17 10:46:52;;;;;;;9.70;7.05;;;10.70;99.50;;;;;;8291810;28;20025;-65
2021/04/17 10:51:01;;;;;;;9.40;6.30;;;11.10;97.30;;;;;;8293529;28;20037;-65
2021/04/17 10:55:02;;;;;;;9.63;6.50;;;10.20;97.10;;;;;;8289851;28;20025;-65
2021/04/17 10:59:04;;;;;;;9.65;7.20;;;8.90;99.90;;;;;;8295666;28;20030;-64
2021/04/17 11:03:08;;;;;;;11.00;7.40;;;8.50;99.90;;;;;;8295279;28;20530;-65
2021/04/17 11:07:10;;;;;;;11.07;7.07;;;8.50;99.90;;;;;;8292801;28;20377;-65
2021/04/17 11:11:16;;;;;;;11.45;6.78;;;8.50;99.90;;;;;;8292650;28;20496;-66
2021/04/17 11:15:21;;;;;;;10.10;6.05;;;8.50;99.90;;;;;;8294525;28;20028;-66
2021/04/17 11:19:31;;;;;;;9.32;5.93;;;8.60;99.90;;;;;;8294088;28;20030;-65
2021/04/17 11:23:55;;;;;;;8.68;5.50;;;8.20;99.90;;;;;;8314765;28;20087;-66
2021/04/17 11:27:56;;;;;;;6.88;4.22;;;8.80;99.90;;;;;;8327481;28;20057;-65
2021/04/17 11:31:56;;;;;;;8.43;6.10;;;8.70;99.90;;;;;;8310654;28;20092;-66
2021/04/17 11:35:57;;;;;;;8.40;5.43;;;8.30;99.90;;;;;;8300634;28;20046;-65
2021/04/17 11:39:58;;;;;;;12.07;6.28;;;8.20;99.90;;;;;;8296695;28;20029;-65
2021/04/17 11:43:59;;;;;;;9.13;6.03;;;8.40;99.90;;;;;;8326126;28;20056;-66
2021/04/17 11:48:00;;;;;;;10.60;5.82;;;8.20;99.90;;;;;;8315927;28;20095;-66
2021/04/17 11:52:00;;;;;;;8.00;5.40;;;8.00;99.90;;;;;;8300258;28;20052;-66
2021/04/17 11:56:02;;;;;;;9.65;6.20;;;8.20;99.90;;;;;;8292052;28;20025;-65
2021/04/17 12:00:05;;;;;;;8.02;5.63;;;8.40;99.90;;;;;;8299649;28;20033;-64
2021/04/17 12:04:05;;;;;;;9.02;5.72;;;8.90;99.90;;;;;;8298297;28;20046;-65
2021/04/17 12:08:06;;;;;;;9.77;6.03;;;8.90;99.80;;;;;;8292259;28;20052;-66
2021/04/17 12:12:07;;;;;;;9.63;5.90;;;9.30;99.90;;;;;;8293461;28;20026;-65
2021/04/17 12:16:08;;;;;;;10.32;5.78;;;9.60;98.90;;;;;;8292537;28;20037;-65
2021/04/17 12:20:10;;;;;;;8.95;6.47;;;9.90;99.30;;;;;;8294159;28;20107;-66
2021/04/17 12:24:11;;;;;;;8.27;5.82;;;10.10;98.70;;;;;;8292862;28;20126;-65
2021/04/17 12:28:11;;;;;;;10.32;6.03;;;10.30;98.70;;;;;;8314330;28;20023;-66
2021/04/17 12:32:12;;;;;;;10.57;6.38;;;10.40;98.90;;;;;;8307520;28;20025;-66
2021/04/17 12:36:13;;;;;;;9.10;7.03;;;10.50;98.00;;;;;;8292777;28;20081;-66
2021/04/17 12:40:14;;;;;;;10.65;6.47;;;10.40;97.30;;;;;;8291602;28;20093;-65
2021/04/17 12:44:15;;;;;;;9.13;6.25;;;9.50;97.00;;;;;;8300535;28;20029;-64
2021/04/17 12:48:17;;;;;;;10.55;7.00;;;8.70;99.90;;;;;;8299113;28;20049;-65
2021/04/17 12:52:18;;;;;;;14.63;7.40;;;8.80;99.90;;;;;;8291598;28;20487;-65
2021/04/17 12:56:18;;;;;;;11.35;7.60;;;8.80;99.90;;;;;;8295992;28;20029;-65
2021/04/17 13:00:20;;;;;;;16.65;8.40;;;9.00;99.90;;;;;;8291020;28;20026;-65
2021/04/17 13:04:21;;;;;;;15.60;8.57;;;9.30;99.90;;;;;;8291571;28;20030;-65
2021/04/17 13:08:24;;;;;;;16.73;8.73;;;9.70;99.90;;;;;;8289759;28;20041;-65
2021/04/17 13:12:24;;;;;;;10.95;7.18;;;10.20;99.90;;;;;;8288929;28;20022;-65
2021/04/17 13:16:25;;;;;;;12.23;7.80;;;10.40;98.00;;;;;;8296641;28;20033;-65
2021/04/17 13:20:26;;;;;;;11.82;7.22;;;10.60;98.50;;;;;;8303049;28;20026;-66
2021/04/17 13:24:27;;;;;;;11.77;7.65;;;10.80;98.90;;;;;;8289431;28;20037;-66
2021/04/17 13:28:27;;;;;;;12.63;8.00;;;10.80;98.20;;;;;;8303067;28;20018;-66
2021/04/17 13:32:29;;;;;;;10.60;7.90;;;11.00;96.70;;;;;;8311521;28;20470;-66
2021/04/17 13:36:29;;;;;;;9.38;7.25;;;11.20;96.00;;;;;;8291583;28;20025;-66
2021/04/17 13:40:30;;;;;;;11.85;7.78;;;11.50;95.90;;;;;;8291173;28;20041;-66
2021/04/17 13:44:30;;;;;;;9.60;6.75;;;12.80;95.00;;;;;;8297320;28;20120;-66
2021/04/17 13:48:31;;;;;;;9.57;6.65;;;14.40;90.70;;;;;;8306427;28;20045;-66
2021/04/17 13:52:32;;;;;;;7.93;6.30;;;15.70;84.20;;;;;;8312384;28;20025;-66
2021/04/17 13:56:33;;;;;;;7.20;6.25;;;16.30;76.30;;;;;;8302689;28;20130;-66
2021/04/17 14:00:33;;;;;;;11.77;6.55;;;16.20;73.10;;;;;;8319754;28;20079;-66
2021/04/17 14:04:35;;;;;;;10.00;6.38;;;15.60;71.60;;;;;;8315510;28;20075;-66
2021/04/17 14:08:36;;;;;;;9.00;6.50;;;14.90;74.00;;;;;;8312733;28;20034;-65
2021/04/17 14:12:37;;;;;;;9.50;6.47;;;14.40;76.00;;;;;;8310615;28;20052;-65
2021/04/17 14:16:38;;;;;;;7.13;5.75;;;14.30;75.60;;;;;;8312541;28;20033;-65
2021/04/17 14:20:39;;;;;;;8.82;6.35;;;14.00;76.90;;;;;;8311914;28;20052;-65
2021/04/17 14:24:40;;;;;;;7.22;5.78;;;13.70;78.70;;;;;;8316062;28;20421;-65
2021/04/17 14:28:40;;;;;;;7.15;5.07;;;13.90;78.00;;;;;;8320168;28;20030;-66
2021/04/17 14:32:42;;;;;;;7.57;5.65;;;14.90;73.50;;;;;;8313409;28;20081;-65
2021/04/17 14:36:42;;;;;;;8.68;5.40;;;15.00;69.70;;;;;;8291017;28;20026;-68
2021/04/17 14:40:43;;;;;;;8.43;6.00;;;15.20;71.40;;;;;;8290999;28;20105;-68
2021/04/17 14:44:43;;;;;;;11.23;5.20;;;15.50;69.40;;;;;;8295349;28;20503;-67
2021/04/17 14:48:47;;;;;;;7.63;5.70;;;15.30;69.50;;;;;;8295806;28;20034;-68
2021/04/17 14:52:50;;;;;;;7.03;5.07;;;16.10;68.50;;;;;;8295633;28;20516;-69
2021/04/17 14:56:51;;;;;;;9.80;5.75;;;16.30;67.30;;;;;;8298439;28;20029;-68
2021/04/17 15:00:52;;;;;;;9.80;5.82;;;15.50;67.80;;;;;;8289613;28;20024;-67
2021/04/17 15:04:52;;;;;;;7.93;5.72;;;14.70;70.50;;;;;;8297735;28;20093;-67
2021/04/17 15:08:53;;;;;;;8.25;5.82;;;13.80;73.50;;;;;;8295866;28;20101;-69
2021/04/17 15:12:55;;;;;;;7.95;5.85;;;13.00;77.00;;;;;;8283900;28;20070;-69
2021/04/17 15:16:55;;;;;;;9.68;5.88;;;12.30;77.30;;;;;;8297731;28;20033;-67
2021/04/17 15:20:56;;;;;;;8.63;5.97;;;12.00;82.30;;;;;;8302689;28;20029;-68
2021/04/17 15:24:57;;;;;;;12.75;5.95;;;11.90;81.00;;;;;;8295210;28;20026;-68
2021/04/17 15:29:02;;;;;;;9.48;6.65;;;11.90;84.40;;;;;;8309234;28;20052;-68
2021/04/17 15:33:03;;;;;;;9.05;6.57;;;11.90;83.00;;;;;;8292817;28;20090;-69
2021/04/17 15:37:05;;;;;;;9.32;5.47;;;11.80;84.80;;;;;;8305787;28;20081;-68
2021/04/17 15:41:09;;;;;;;10.00;6.05;;;11.40;81.20;;;;;;8307512;28;20101;-67
2021/04/17 15:45:11;;;;;;;10.05;6.90;;;10.90;89.40;;;;;;8300939;28;20093;-68
2021/04/17 15:49:11;;;;;;;8.18;5.90;;;11.00;88.10;;;;;;8296375;28;20465;-68
2021/04/17 15:53:12;;;;;;;8.40;6.30;;;11.00;87.80;;;;;;8304423;28;20119;-68
2021/04/17 16:03:06;;;;;;;10.05;6.63;;;10.40;89.30;;;;;;8322602;28;20049;-67
2021/04/17 16:14:17;;;;;;;11.48;5.70;;;10.20;91.20;;;;;;8307017;28;20181;-67
2021/04/17 16:14:46;;;;;;;9.02;5.88;;;10.20;91.70;;;;;;8305860;28;20076;-68
2021/04/17 16:18:47;;;;;;;11.63;6.53;;;10.20;91.50;;;;;;8336870;28;20049;-68
2021/04/17 16:22:48;;;;;;;9.02;5.53;;;10.10;92.00;;;;;;8313043;28;20022;-67
2021/04/17 16:26:49;;;;;;;7.88;5.47;;;10.00;92.70;;;;;;8304098;28;20047;-68
2021/04/17 16:30:49;;;;;;;8.90;6.05;;;9.90;92.10;;;;;;8310637;28;20079;-68
2021/04/17 16:34:50;;;;;;;8.32;6.55;;;9.60;92.10;;;;;;8316551;28;20052;-67
2021/04/17 16:38:50;;;;;;;14.88;8.48;;;9.60;93.70;;;;;;8316982;28;20034;-68
2021/04/17 16:42:51;;;;;;;14.50;7.97;;;9.50;94.30;;;;;;8313491;28;20022;-68
2021/04/17 16:46:52;;;;;;;16.17;10.10;;;9.40;95.20;;;;;;8313309;28;20022;-69
2021/04/17 16:50:52;;;;;;;12.80;7.95;;;9.20;94.70;;;;;;8303409;28;20491;-67
2021/04/17 16:54:53;;;;;;;9.88;7.20;;;9.10;95.10;;;;;;8298917;28;20052;-68
2021/04/17 16:58:54;;;;;;;11.75;6.88;;;9.00;95.90;;;;;;8305519;28;20096;-68
2021/04/17 17:02:55;;;;;;;15.55;10.88;;;8.90;97.20;;;;;;8284499;28;20033;-67
2021/04/17 17:06:56;;;;;;;11.80;7.53;;;8.80;97.10;;;;;;8288171;28;20030;-67
2021/04/17 17:10:56;;;;;;;13.05;8.38;;;8.70;98.00;;;;;;8290147;28;20068;-67
2021/04/17 17:14:57;;;;;;;17.27;10.75;;;8.60;97.90;;;;;;8283189;28;20030;-67
2021/04/17 17:18:57;;;;;;;11.32;7.97;;;8.60;98.70;;;;;;8287767;28;20117;-67
2021/04/17 17:22:58;;;;;;;13.70;8.50;;;8.50;99.30;;;;;;8288544;28;20064;-67
2021/04/17 17:26:58;;;;;;;8.82;5.78;;;8.50;98.40;;;;;;8292706;28;20776;-67
2021/04/17 17:30:59;;;;;;;10.63;7.53;;;8.50;99.90;;;;;;8294795;28;20524;-67
2021/04/17 17:35:01;;;;;;;21.27;14.27;;;8.60;98.30;;;;;;8303878;28;20136;-67
2021/04/17 17:39:07;;;;;;;11.23;7.47;;;8.40;98.90;;;;;;8297156;28;20125;-67
2021/04/17 17:43:08;;;;;;;11.48;6.57;;;8.30;99.90;;;;;;8302454;28;20437;-67
2021/04/17 17:47:09;;;;;;;8.02;5.82;;;8.30;99.90;;;;;;8301331;28;20038;-67
2021/04/17 17:51:10;;;;;;;11.15;6.43;;;8.20;99.90;;;;;;8303092;28;20026;-67
2021/04/17 17:55:11;;;;;;;8.48;5.97;;;8.00;99.90;;;;;;8299227;28;20026;-68
2021/04/17 17:59:12;;;;;;;7.35;5.32;;;7.80;99.90;;;;;;8302775;28;20152;-67
2021/04/17 18:03:13;;;;;;;10.65;5.88;;;7.50;99.90;;;;;;8301857;28;20392;-68
2021/04/17 18:07:13;;;;;;;7.47;5.03;;;7.40;99.90;;;;;;8304172;28;20025;-67
2021/04/17 18:11:14;;;;;;;8.35;4.38;;;7.50;99.90;;;;;;8302735;28;20026;-67
2021/04/17 18:15:16;;;;;;;5.65;3.90;;;7.30;99.90;;;;;;8301081;28;20061;-67
2021/04/17 18:19:17;;;;;;;6.30;4.13;;;7.10;99.90;;;;;;8310600;28;20102;-67
2021/04/17 18:23:18;;;;;;;5.03;3.88;;;7.00;99.90;;;;;;8311077;28;20025;-67
2021/04/17 18:27:18;;;;;;;6.68;4.93;;;7.00;99.90;;;;;;8306551;28;20033;-68
2021/04/17 18:31:20;;;;;;;7.15;4.88;;;6.90;99.90;;;;;;8311983;28;20480;-67
2021/04/17 18:35:21;;;;;;;8.98;3.95;;;6.80;99.90;;;;;;8298703;28;20029;-68
2021/04/17 18:39:21;;;;;;;6.63;4.72;;;6.70;99.90;;;;;;8304561;28;20507;-67
2021/04/17 18:43:22;;;;;;;6.05;4.68;;;6.60;99.90;;;;;;8303147;28;20381;-67
2021/04/17 18:47:23;;;;;;;7.32;4.10;;;6.50;99.90;;;;;;8308127;28;20464;-67
2021/04/17 18:51:23;;;;;;;7.30;3.92;;;6.40;99.90;;;;;;8314766;28;20053;-67
2021/04/17 18:55:29;;;;;;;9.70;3.80;;;6.40;99.90;;;;;;8314717;28;20026;-68
2021/04/17 18:59:29;;;;;;;5.47;4.18;;;6.40;99.90;;;;;;8302092;28;20095;-68
2021/04/17 19:03:30;;;;;;;7.25;4.10;;;6.40;99.90;;;;;;8307000;28;20037;-68
2021/04/17 19:07:31;;;;;;;6.13;4.40;;;6.20;99.90;;;;;;8304442;28;20510;-68
2021/04/17 19:11:37;;;;;;;5.22;3.88;;;6.30;99.90;;;;;;8307067;28;20112;-68
2021/04/17 19:15:37;;;;;;;6.15;3.88;;;6.20;99.90;;;;;;8304779;28;20058;-68
2021/04/17 19:19:38;;;;;;;5.82;4.35;;;6.00;99.90;;;;;;8310675;28;20017;-68
2021/04/17 19:23:38;;;;;;;9.23;4.35;;;6.00;99.90;;;;;;8310912;28;20037;-68
2021/04/17 19:27:40;;;;;;;5.55;4.10;;;6.00;99.90;;;;;;8309094;28;20033;-68
2021/04/17 19:31:40;;;;;;;5.30;4.32;;;5.90;99.90;;;;;;8299963;28;20407;-68
2021/04/17 19:35:41;;;;;;;5.32;4.00;;;6.00;99.90;;;;;;8301669;28;20042;-68
2021/04/17 19:39:41;;;;;;;7.03;3.92;;;5.90;99.90;;;;;;8304305;28;20113;-68
2021/04/17 19:43:42;;;;;;;7.72;4.53;;;5.80;99.90;;;;;;8305097;28;20060;-68
2021/04/17 19:47:46;;;;;;;6.53;4.68;;;5.80;99.90;;;;;;8310737;28;20033;-67
2021/04/17 19:51:47;;;;;;;6.20;4.50;;;5.70;99.90;;;;;;8293440;28;20105;-68
2021/04/17 19:55:47;;;;;;;6.85;4.70;;;5.60;99.90;;;;;;8297807;28;20431;-67
2021/04/17 19:59:48;;;;;;;8.48;4.68;;;5.70;99.90;;;;;;8303422;28;20043;-68
2021/04/17 20:03:49;;;;;;;7.10;4.88;;;5.70;99.90;;;;;;8303691;28;20141;-68
2021/04/17 20:07:49;;;;;;;7.65;4.68;;;5.70;99.90;;;;;;8304442;28;20084;-68
2021/04/17 20:11:50;;;;;;;7.65;4.57;;;5.60;99.90;;;;;;8302339;28;20022;-68
2021/04/17 20:15:51;;;;;;;7.53;4.72;;;5.70;99.90;;;;;;8302345;28;20044;-68
2021/04/17 20:19:52;;;;;;;6.85;4.72;;;5.60;99.90;;;;;;8302342;28;20489;-68
2021/04/17 20:23:53;;;;;;;7.07;4.10;;;5.50;99.90;;;;;;8321951;28;20128;-67
2021/04/17 20:27:54;;;;;;;8.25;5.30;;;5.40;99.90;;;;;;8307921;28;20029;-68
2021/04/17 20:31:54;;;;;;;7.35;4.70;;;5.40;99.90;;;;;;8303219;28;20032;-68
2021/04/17 20:35:55;;;;;;;11.23;6.03;;;5.50;99.90;;;;;;8317472;28;20041;-68
2021/04/17 20:39:55;;;;;;;8.50;5.32;;;5.40;99.90;;;;;;8312042;28;20029;-68
2021/04/17 20:43:57;;;;;;;6.10;4.82;;;5.30;99.90;;;;;;8307949;28;20036;-68
2021/04/17 20:47:58;;;;;;;7.10;4.63;;;5.40;99.90;;;;;;8313937;28;20026;-67
2021/04/17 20:51:58;;;;;;;5.97;4.38;;;5.20;99.90;;;;;;8295932;28;20155;-68
2021/04/17 20:55:59;;;;;;;6.40;4.78;;;5.20;99.90;;;;;;8290452;28;20703;-67
2021/04/17 21:00:00;;;;;;;8.73;5.20;;;5.20;99.90;;;;;;8289644;28;20050;-68